Triumph, Louisiana
Current Conditions -  °F | °C
As of 6:06 PM on Sunday 23 Nov 2014 (Local Time) from KBVE Reporting Station
Scattered Clouds Scattered Clouds  
Wind Chill: 66°   Ceiling: Unl
Heat Index: 66°   Visibility: 9mi
Dew Point: 66°   Wind: 9mph
Humidity: 100%   Direction: 190°S
Pressure: 29.72"   Gusts: NA
Location:  29.2996°N, 89.4367°W
Report Text: KBVE 240006Z AUTO 19008KT 9SM FEW019 SCT024 19/19 A2972 RMK AO2 T01890189
Loading
Personal Weather Stations






























Interactive Weather Map New forecast layout! Learn more

10-Day Weather Forecast

Advertisements
Track Severe Weather on mobile